x

West Oregon - 275nm West Of Coos Bay, Or (46002) Wave Buoy

4:50pm - Thu 30th Oct 2014 All times are UTC.

  • Sig Wave height 5.9ft
  • Peak Period 8s
  • Average Period 6s
  • Wind
    13mph, 16mph gusts
  • Sea Temp 62°f
  • Air Temp 58°f
  • Sea Pressure 1009.5mb

More Historic Weather Station data

Upgrade to MSW Pro to gain access to the past 30 days of data for over 8000 Wavebouys and Weather Stations around the globe.

Join Pro

Comparision Forecast

View Surf forecast
   
Thu 10/30 4:50pm 6ft 8s 6s 13 16 mph 1009.5mb 62f 58f
3:50pm 6ft 8s 6s 16 20 mph 1008.9mb 62f 58f
2:50pm 6ft 6s 6s 18 20 mph 1008.7mb 62f 59f
1:50pm 6ft 7s 6s 16 18 mph 1008.5mb 62f 58f
12:50pm 6ft 6s 6s 13 18 mph 1008.4mb 62f 59f
11:50am 6.5ft 7s 6s 18 22 mph 1008.1mb 62f 59f
10:50am 6.5ft 10s 6s 18 22 mph 1008.5mb 62f 59f
9:50am 6.5ft 9s 6s 18 22 mph 1008.7mb 62f 59f
8:50am 7ft 9s 6s 20 25 mph 1008.4mb 62f 60f
7:50am 6ft 8s 6s 22 27 mph 1008.6mb 62f 61f
6:50am 6ft 9s 6s 20 25 mph 1008.6mb 62f 62f
5:50am 6.5ft 8s 6s 22 27 mph 1008.5mb 62f 62f
4:50am 6ft 8s 6s 20 22 mph 1008.3mb 63f 61f
3:50am 6ft 9s 7s 16 18 mph 1008.5mb 63f 61f
2:50am 6ft 10s 7s 16 18 mph 1008.9mb 63f 61f
1:50am 7ft 11s 7s 16 18 mph 1008.9mb 63f 61f
12:50am 6.5ft 10s 7s 13 16 mph 1009.9mb 63f 60f
Wed 10/29 11:50pm 7ft 9s 7s 13 18 mph 1010.7mb 63f 60f
10:50pm 7ft 10s 7s 13 18 mph 1011.8mb 63f 60f
9:50pm 8ft 11s 7s 16 18 mph 1012.9mb 63f 60f
8:50pm 7.5ft 11s 7s 16 20 mph 1014mb 62f 61f
7:50pm 8ft 11s 8s 16 22 mph 1015.1mb 62f 62f
6:50pm 8ft 11s  -  13 16 mph 1015.6mb 62f 61f
5:50pm 8ft 11s 8s 11 13 mph 1016.3mb 62f 61f
4:50pm 9ft 12s 8s 11 13 mph 1016.8mb 62f 60f
3:50pm 10ft 12s 8s 11 13 mph 1016.6mb 62f 60f
2:50pm 10ft 11s 8s 7 11 mph 1016.7mb 62f 60f
1:50pm 10ft 12s 8s 4 7 mph 1017mb 62f 60f
12:50pm 10ft 12s 8s 9 11 mph 1017.2mb 62f 60f
11:50am 11ft 11s 8s 7 11 mph 1017.1mb 62f 60f
10:50am 11.5ft 11s 8s 13 16 mph 1017.3mb 62f 60f
9:50am 9.5ft 11s 8s 11 13 mph 1017.7mb 62f 61f
8:50am 10ft 12s 8s 7 11 mph 1017.7mb 62f 61f
7:50am 10ft 10s 8s 9 13 mph 1017.6mb 63f 61f
6:50am 11ft 12s 8s 11 13 mph 1017.8mb 63f 61f
5:50am 10.5ft 11s 8s 13 18 mph 1017.1mb 63f 61f
4:50am 11ft 11s 8s 13 16 mph 1016.3mb 63f 61f
3:50am 11ft 12s 8s 16 20 mph 1015.7mb 63f 61f
2:50am 11ft 12s 8s 16 20 mph 1015.2mb 63f 61f
1:50am 12ft 11s 8s 18 22 mph 1014.5mb 63f 62f
12:50am 12ft 12s 8s 20 22 mph 1013.6mb 63f 62f
Tue 10/28 11:50pm 13ft 11s 8s 18 25 mph 1012.8mb 63f 61f
10:50pm 14ft 11s 8s 20 25 mph 1012.2mb 63f 62f
9:50pm 13ft 12s 8s 20 25 mph 1011.8mb 63f 62f
8:50pm 12ft 12s 8s 25 36 mph 1011.6mb 63f 62f
7:50pm 12ft 11s 7s 25 29 mph 1011.4mb 63f 63f
6:50pm 13ft 12s 8s 25 27 mph 1011.1mb 63f 62f
5:50pm 13ft 11s 8s 22 27 mph 1010.9mb 63f 62f
4:50pm 12ft 12s 7s 22 29 mph 1010.4mb 63f 62f
3:50pm 13ft 11s 7s 25 31 mph 1009.7mb 63f 62f
2:50pm 13ft 12s 8s 27 34 mph 1009mb 63f 62f
1:50pm 13ft 11s 8s 22 29 mph 1008.7mb 63f 63f
12:50pm 11ft 12s 8s 27 31 mph 1008.2mb 63f 63f
11:50am 12ft 11s 8s 25 29 mph 1008.1mb 63f 63f
10:50am 12.5ft 11s 8s 25 29 mph 1008.2mb 63f 63f
9:50am 11ft 9s 8s 27 34 mph 1008.2mb 63f 63f
8:50am 12.5ft 11s 8s 22 27 mph 1008.6mb 63f 64f
7:50am 12ft 13s 7s 25 34 mph 1008.3mb 63f 64f
6:50am 13ft 12s 7s 22 31 mph 1008.3mb 63f 63f
5:50am 11ft 11s 7s 22 25 mph 1008.1mb 63f 63f
4:50am 13ft 11s 7s 25 27 mph 1007.9mb 63f 64f
3:50am 13ft 11s 7s 27 34 mph 1007.9mb 63f 63f
2:50am 13ft 11s 7s 29 36 mph 1007.7mb 63f 63f
1:50am 11.5ft 10s 7s 31 38 mph 1007.6mb 63f 63f
12:50am 12ft 9s 6s 29 36 mph 1008.1mb 63f 63f
Mon 10/27 11:50pm 13.5ft 8s 7s 29 36 mph 1008.7mb 63f 63f
10:50pm 10.5ft 8s 6s 31 40 mph 1009mb 63f 63f
9:50pm 9.5ft 8s 6s 31 38 mph 1009.8mb 63f 63f
8:50pm 9ft 8s 6s 31 38 mph 1010.7mb 63f 63f
7:50pm 9ft 8s 6s 27 36 mph 1011.8mb 63f 63f
6:50pm 9ft 7s 6s 29 36 mph 1012.3mb 63f 63f
5:50pm 8ft 7s 6s 27 34 mph 1013mb 63f 62f
4:50pm 7.5ft 7s 6s 29 36 mph 1013.4mb 63f 63f
3:50pm 7ft 6s 5s 27 31 mph 1013.7mb 63f 62f
2:50pm 7ft 6s 5s 25 31 mph 1014.1mb 63f 62f
1:50pm 6ft 6s 5s 25 31 mph 1014.9mb 63f 62f
12:50pm 6.5ft 9s 5s 25 31 mph 1015.4mb 63f 62f
11:50am 6.5ft 10s 5s 25 29 mph 1016.3mb 63f 62f
10:50am 7ft 9s 6s 22 27 mph 1017mb 63f 61f
9:50am 8ft 10s 6s 22 25 mph 1017.9mb 63f 61f
8:50am 7ft 10s 6s 22 27 mph 1018.4mb 63f 61f
7:50am 7ft 10s 7s 20 25 mph 1018.7mb 63f 61f
6:50am 7ft 10s 7s 16 18 mph 1019.6mb 63f 60f
5:50am 7ft 9s 8s 11 16 mph 1019.9mb 63f 60f
4:50am 6.5ft 10s 7s 13 16 mph 1020.9mb 63f 60f
3:50am 7.5ft 9s 7s 11 13 mph 1021.3mb 63f 60f
2:50am 7.5ft 9s 8s 11 16 mph 1021.2mb 63f 60f
1:50am 8ft 9s 7s 11 13 mph 1021.2mb 63f 60f
12:50am 8ft 9s 7s 13 16 mph 1021.5mb 63f 60f
Sun 10/26 11:50pm 8.5ft 11s 7s 13 16 mph 1021.8mb 63f 59f
10:50pm 9ft 10s 7s 9 11 mph 1021.9mb 63f 60f
9:50pm 8ft 10s 7s 11 13 mph 1022.3mb 63f 60f
8:50pm 8.5ft 9s 7s 9 11 mph 1022.5mb 63f 61f
7:50pm 8.5ft 11s 7s 11 16 mph 1023.2mb 63f 61f
6:50pm 9ft 9s 7s 11 13 mph 1023.1mb 63f 60f